Time;durP1;ratioP1;P1;durP2;ratioP2;P2;SDS_P1;SDS_P2;PMS_P1;PMS_P2;Temp;Humidity;BMP_temperature;BMP_pressure;BME280_temperature;BME280_humidity;BME280_pressure;Samples;Min_cycle;Max_cycle;Signal;HPM_P1;HPM_P2
2024/01/08 00:00:54;;;;;;;19.25;9.50;;;2.10;99.90;;;;;;4881828;29;20301;-73
2024/01/08 00:03:23;;;;;;;18.98;9.18;;;2.10;99.90;;;;;;4867303;29;20431;-74
2024/01/08 00:05:52;;;;;;;16.63;8.30;;;2.20;99.90;;;;;;4868468;29;20192;-74
2024/01/08 00:08:23;;;;;;;13.13;6.25;;;2.20;99.90;;;;;;4884516;29;20400;-73
2024/01/08 00:10:55;;;;;;;13.57;6.60;;;2.20;99.90;;;;;;4874564;29;20409;-73
2024/01/08 00:13:24;;;;;;;11.43;5.55;;;2.10;99.90;;;;;;4892198;29;20547;-73
2024/01/08 00:15:53;;;;;;;14.02;5.95;;;2.00;99.90;;;;;;4877051;29;20053;-73
2024/01/08 00:18:28;;;;;;;9.65;4.18;;;2.00;99.90;;;;;;4873657;29;20726;-75
2024/01/08 00:20:59;;;;;;;11.93;5.70;;;1.90;99.90;;;;;;4882504;29;20509;-73
2024/01/08 00:23:28;;;;;;;14.57;6.18;;;1.90;99.90;;;;;;4871607;29;20139;-73
2024/01/08 00:26:02;;;;;;;10.95;6.38;;;1.90;99.90;;;;;;4882982;29;20056;-75
2024/01/08 00:28:32;;;;;;;11.68;5.53;;;1.90;99.90;;;;;;4861879;29;20068;-73
2024/01/08 00:31:01;;;;;;;14.20;7.15;;;1.80;99.90;;;;;;4885046;29;20053;-74
2024/01/08 00:33:30;;;;;;;16.90;7.53;;;1.60;99.90;;;;;;4881737;29;20048;-73
2024/01/08 00:35:58;;;;;;;15.82;6.53;;;1.60;99.90;;;;;;4840682;29;20076;-74
2024/01/08 00:38:27;;;;;;;16.52;6.82;;;1.80;99.90;;;;;;4810979;29;20061;-73
2024/01/08 00:40:56;;;;;;;16.38;6.85;;;1.40;99.90;;;;;;4840788;29;20061;-73
2024/01/08 00:43:27;;;;;;;18.27;8.05;;;1.30;99.90;;;;;;4807287;29;20058;-74
2024/01/08 00:45:55;;;;;;;17.65;8.75;;;1.60;99.90;;;;;;4813212;29;20492;-75
2024/01/08 00:48:25;;;;;;;17.65;9.30;;;1.20;99.90;;;;;;4826969;29;20058;-74
2024/01/08 00:50:54;;;;;;;14.63;7.50;;;1.20;99.90;;;;;;4804340;29;20544;-74
2024/01/08 00:53:23;;;;;;;20.42;9.05;;;1.10;99.90;;;;;;4796454;29;20413;-73
2024/01/08 00:55:53;;;;;;;21.23;11.38;;;1.00;99.90;;;;;;4813272;29;20053;-74
2024/01/08 00:58:28;;;;;;;20.45;8.88;;;1.20;99.90;;;;;;4825028;29;20173;-74
2024/01/08 01:00:56;;;;;;;19.50;8.55;;;1.10;99.90;;;;;;4824681;29;20434;-73
2024/01/08 01:03:29;;;;;;;19.85;9.05;;;1.50;99.90;;;;;;4832543;29;20072;-73
2024/01/08 01:05:59;;;;;;;19.58;9.43;;;1.10;99.90;;;;;;4851747;29;20063;-73
2024/01/08 01:08:28;;;;;;;18.13;7.72;;;1.10;99.90;;;;;;4813334;29;20057;-75
2024/01/08 01:11:02;;;;;;;19.83;10.05;;;1.10;99.90;;;;;;4845994;29;20064;-73
2024/01/08 01:13:39;;;;;;;23.53;9.57;;;1.10;99.90;;;;;;4845541;29;20060;-73
2024/01/08 01:16:10;;;;;;;21.15;10.07;;;1.00;99.90;;;;;;4866230;29;20057;-73
2024/01/08 01:18:45;;;;;;;21.10;11.02;;;0.90;99.90;;;;;;4867986;29;20061;-73
2024/01/08 01:21:21;;;;;;;21.77;10.23;;;0.90;99.90;;;;;;4871131;29;20207;-73
2024/01/08 01:23:53;;;;;;;21.50;8.25;;;0.90;99.90;;;;;;4863974;29;20192;-74
2024/01/08 01:26:23;;;;;;;22.42;10.00;;;1.00;99.90;;;;;;4869719;29;20060;-74
2024/01/08 01:28:56;;;;;;;20.60;8.98;;;1.00;99.90;;;;;;4869227;29;20048;-74
2024/01/08 01:31:25;;;;;;;23.83;8.48;;;1.80;99.90;;;;;;4858929;29;22245;-74
2024/01/08 01:33:54;;;;;;;19.52;8.57;;;1.00;99.90;;;;;;4856337;29;20767;-74
2024/01/08 01:36:22;;;;;;;19.67;8.25;;;1.10;99.90;;;;;;4849727;29;20065;-75
2024/01/08 01:38:51;;;;;;;21.00;7.95;;;1.20;99.90;;;;;;4864808;29;20080;-74
2024/01/08 01:41:19;;;;;;;18.05;8.27;;;1.10;99.90;;;;;;4849060;29;20440;-74
2024/01/08 01:43:48;;;;;;;22.23;8.63;;;1.20;99.90;;;;;;4875610;29;20053;-73
2024/01/08 01:46:28;;;;;;;23.05;8.88;;;1.20;99.90;;;;;;4853987;29;20538;-74
2024/01/08 01:48:57;;;;;;;19.05;9.18;;;1.10;99.90;;;;;;4871803;29;20079;-74
2024/01/08 01:51:27;;;;;;;18.55;7.65;;;1.00;99.90;;;;;;4861517;29;20165;-73
2024/01/08 01:53:58;;;;;;;20.17;9.07;;;1.00;99.90;;;;;;4871914;29;20127;-73
2024/01/08 01:56:27;;;;;;;19.00;9.60;;;0.90;99.90;;;;;;4878220;29;20044;-73
2024/01/08 01:58:58;;;;;;;18.77;7.97;;;1.00;99.90;;;;;;4828517;29;20072;-74
2024/01/08 02:01:28;;;;;;;21.60;8.95;;;1.00;99.90;;;;;;4873315;29;20074;-76
2024/01/08 02:03:57;;;;;;;20.20;9.00;;;1.20;99.90;;;;;;4845766;29;20057;-72
2024/01/08 02:06:29;;;;;;;18.92;9.32;;;1.10;99.90;;;;;;4851103;29;20139;-72
2024/01/08 02:08:57;;;;;;;18.98;7.93;;;1.30;99.90;;;;;;4845501;29;20572;-72
2024/01/08 02:11:26;;;;;;;22.77;9.93;;;1.10;99.90;;;;;;4878784;29;20523;-74
2024/01/08 02:13:55;;;;;;;18.10;8.65;;;0.90;99.90;;;;;;4877511;29;20409;-73
2024/01/08 02:16:24;;;;;;;24.60;10.80;;;0.90;99.90;;;;;;4853144;29;20192;-74
2024/01/08 02:18:54;;;;;;;19.38;8.95;;;0.90;99.90;;;;;;4864265;29;20089;-73
2024/01/08 02:21:23;;;;;;;24.00;9.93;;;0.80;99.90;;;;;;4850136;29;20392;-75
2024/01/08 02:23:54;;;;;;;23.40;9.98;;;0.80;99.90;;;;;;4853218;29;20063;-73
2024/01/08 02:26:23;;;;;;;22.25;10.07;;;0.80;99.90;;;;;;4875219;29;20052;-74
2024/01/08 02:28:52;;;;;;;20.90;10.00;;;0.80;99.90;;;;;;4851470;29;20061;-73
2024/01/08 02:31:21;;;;;;;21.13;10.60;;;0.80;99.90;;;;;;4860752;29;22176;-73
2024/01/08 02:33:51;;;;;;;22.05;10.57;;;0.80;99.90;;;;;;4867827;29;20056;-73
2024/01/08 02:36:22;;;;;;;19.60;8.25;;;0.80;99.90;;;;;;4860671;29;20051;-73
2024/01/08 02:38:52;;;;;;;23.15;8.85;;;0.90;99.90;;;;;;4849673;29;20508;-75
2024/01/08 02:41:21;;;;;;;19.20;8.85;;;0.90;99.90;;;;;;4866202;29;20412;-74
2024/01/08 02:43:49;;;;;;;20.88;7.90;;;0.90;99.90;;;;;;4845227;29;20053;-74
2024/01/08 02:46:18;;;;;;;22.77;8.77;;;1.00;99.90;;;;;;4866726;29;20053;-74
2024/01/08 02:48:46;;;;;;;18.25;8.27;;;1.00;99.90;;;;;;4843108;29;20068;-74
2024/01/08 02:51:15;;;;;;;20.13;8.65;;;1.00;99.90;;;;;;4854215;29;20086;-74
2024/01/08 02:53:45;;;;;;;19.60;8.73;;;1.00;99.90;;;;;;4860341;29;20519;-73
2024/01/08 02:56:21;;;;;;;24.63;10.57;;;1.10;99.90;;;;;;4856462;29;20519;-73
2024/01/08 02:58:50;;;;;;;21.90;9.07;;;1.00;99.90;;;;;;4875921;29;20041;-75
2024/01/08 03:01:18;;;;;;;22.40;8.70;;;1.00;99.90;;;;;;4856746;29;20060;-73
2024/01/08 03:03:47;;;;;;;24.75;10.82;;;1.00;99.90;;;;;;4859250;29;20052;-74
2024/01/08 03:06:15;;;;;;;20.23;8.32;;;1.00;99.90;;;;;;4854710;29;20551;-73
2024/01/08 03:08:46;;;;;;;23.17;8.77;;;1.00;99.90;;;;;;4863457;29;20078;-76
2024/01/08 03:11:15;;;;;;;22.95;9.52;;;1.10;99.90;;;;;;4879410;29;20053;-75
2024/01/08 03:13:46;;;;;;;21.13;8.95;;;1.10;99.90;;;;;;4891295;29;20055;-77
2024/01/08 03:16:16;;;;;;;19.77;9.05;;;1.30;99.90;;;;;;4873751;29;20071;-78
2024/01/08 03:18:46;;;;;;;27.80;10.02;;;1.10;99.90;;;;;;4878910;29;20040;-76
2024/01/08 03:30:51;;;;;;;26.35;10.68;;;1.00;99.90;;;;;;4984458;23;22017;-76
2024/01/08 03:33:24;;;;;;;18.55;8.15;;;1.10;99.90;;;;;;4877937;29;20049;-76
2024/01/08 03:35:54;;;;;;;16.98;8.18;;;1.00;99.90;;;;;;4865019;29;20068;-76
2024/01/08 03:38:24;;;;;;;18.73;8.15;;;0.90;99.90;;;;;;4882665;29;20041;-77
2024/01/08 03:43:52;;;;;;;20.95;9.27;;;1.00;99.90;;;;;;4927130;23;20109;-76
2024/01/08 03:46:22;;;;;;;21.25;8.95;;;1.00;99.90;;;;;;4864157;29;20036;-76
2024/01/08 03:48:51;;;;;;;18.00;7.88;;;1.10;99.90;;;;;;4864608;29;20059;-77
2024/01/08 03:51:24;;;;;;;19.50;8.00;;;0.70;99.90;;;;;;4878824;29;20487;-75
2024/01/08 03:53:54;;;;;;;23.42;10.48;;;1.10;99.90;;;;;;4875252;29;22099;-76
2024/01/08 03:56:23;;;;;;;19.42;8.88;;;0.90;99.90;;;;;;4866934;29;20040;-76
2024/01/08 03:58:52;;;;;;;20.20;8.82;;;1.00;99.90;;;;;;4873575;29;20033;-77
2024/01/08 04:01:23;;;;;;;19.50;9.70;;;1.00;99.90;;;;;;4864978;29;20045;-75
2024/01/08 04:03:53;;;;;;;17.75;8.73;;;1.90;99.90;;;;;;4881879;29;20037;-76
2024/01/08 04:19:09;;;;;;;17.15;6.70;;;0.80;99.90;;;;;;5888999;23;20075;31
2024/01/08 04:21:37;;;;;;;18.45;8.52;;;0.70;99.90;;;;;;4787206;29;20065;-78
2024/01/08 04:24:06;;;;;;;11.85;6.32;;;0.70;99.90;;;;;;4786507;29;20933;-77
2024/01/08 04:26:35;;;;;;;15.80;7.00;;;0.80;99.90;;;;;;4778310;29;20202;-79
2024/01/08 04:29:03;;;;;;;18.52;7.78;;;0.70;99.90;;;;;;4789665;29;20054;-78
2024/01/08 04:31:34;;;;;;;19.35;7.82;;;0.70;99.90;;;;;;4786691;29;20053;-77
2024/01/08 04:34:03;;;;;;;18.52;8.13;;;0.80;99.90;;;;;;4789933;29;20160;-76
2024/01/08 04:36:33;;;;;;;16.48;7.45;;;0.80;99.90;;;;;;4774630;29;20194;-78
2024/01/08 04:39:01;;;;;;;16.63;7.80;;;0.80;99.90;;;;;;4790682;29;20050;-78
2024/01/08 04:41:29;;;;;;;17.08;7.43;;;0.70;99.90;;;;;;4776148;29;20064;-78
2024/01/08 04:43:58;;;;;;;17.38;8.23;;;0.70;99.90;;;;;;4774658;29;20061;-78
2024/01/08 04:46:26;;;;;;;21.33;8.80;;;0.60;99.90;;;;;;4784055;29;20094;-78
2024/01/08 04:48:55;;;;;;;18.98;9.30;;;0.70;99.90;;;;;;4775603;29;20076;-78
2024/01/08 04:51:24;;;;;;;18.45;8.30;;;0.70;99.90;;;;;;4775297;29;20077;-77
2024/01/08 04:53:55;;;;;;;18.38;7.57;;;0.70;99.90;;;;;;4790692;29;22399;-78
2024/01/08 04:56:24;;;;;;;18.13;7.90;;;0.60;99.90;;;;;;4772021;29;20097;-78
2024/01/08 04:58:53;;;;;;;17.67;7.13;;;0.60;99.90;;;;;;4804865;29;22791;-78
2024/01/08 05:01:22;;;;;;;18.92;8.02;;;0.60;99.90;;;;;;4787822;29;20054;-76
2024/01/08 05:03:51;;;;;;;14.90;7.20;;;0.60;99.90;;;;;;4805090;29;20058;-75
2024/01/08 05:06:20;;;;;;;16.95;7.63;;;0.70;99.90;;;;;;4773235;29;20297;-74
2024/01/08 05:08:49;;;;;;;19.85;9.50;;;0.70;99.90;;;;;;4795275;29;20054;-75
2024/01/08 05:11:19;;;;;;;20.10;8.77;;;0.70;99.90;;;;;;4788979;29;20062;-75
2024/01/08 05:13:47;;;;;;;15.98;6.95;;;0.70;99.90;;;;;;4795431;29;20046;-75
2024/01/08 05:16:16;;;;;;;27.48;11.52;;;0.70;99.90;;;;;;4790197;29;20054;-75
2024/01/08 05:18:44;;;;;;;21.90;8.15;;;0.80;99.90;;;;;;4797637;29;20050;-75
2024/01/08 05:21:15;;;;;;;21.48;8.20;;;0.80;99.90;;;;;;4808794;29;20441;-75
2024/01/08 05:23:43;;;;;;;21.10;7.72;;;0.80;99.90;;;;;;4797111;29;20060;-75
2024/01/08 05:26:12;;;;;;;17.38;7.75;;;0.80;99.90;;;;;;4795889;29;20151;-75
2024/01/08 05:28:42;;;;;;;23.90;9.27;;;0.80;99.90;;;;;;4796675;29;20054;-75
2024/01/08 05:31:10;;;;;;;15.02;6.30;;;0.80;99.90;;;;;;4793451;29;20050;-77
2024/01/08 05:33:38;;;;;;;16.20;8.38;;;0.80;99.90;;;;;;4795407;29;20779;-77
2024/01/08 05:36:08;;;;;;;18.10;8.73;;;0.70;99.90;;;;;;4808437;29;20110;-76
2024/01/08 05:38:36;;;;;;;22.73;8.25;;;0.80;99.90;;;;;;4795437;29;20049;-76
2024/01/08 05:41:05;;;;;;;18.85;8.00;;;0.80;99.90;;;;;;4817081;29;22337;-77
2024/01/08 05:43:37;;;;;;;17.00;7.18;;;0.90;99.90;;;;;;4819924;29;20038;-76
2024/01/08 05:46:08;;;;;;;19.42;8.60;;;1.50;99.90;;;;;;4829395;29;20068;-76
2024/01/08 05:48:38;;;;;;;20.38;9.10;;;0.70;99.90;;;;;;4818850;29;20789;-76
2024/01/08 05:51:07;;;;;;;19.98;9.70;;;0.80;99.90;;;;;;4815400;29;20470;-77
2024/01/08 05:53:36;;;;;;;17.33;7.28;;;0.90;99.90;;;;;;4828421;29;20105;-77
2024/01/08 05:56:05;;;;;;;19.40;8.27;;;0.80;99.90;;;;;;4798715;29;20078;-76
2024/01/08 05:58:34;;;;;;;20.67;9.00;;;0.70;99.90;;;;;;4814005;29;20066;-77
2024/01/08 06:01:02;;;;;;;19.98;7.43;;;0.80;99.90;;;;;;4811303;29;20733;-76
2024/01/08 06:03:32;;;;;;;19.20;7.28;;;0.70;99.90;;;;;;4813894;29;20045;-77
2024/01/08 06:06:01;;;;;;;17.83;7.82;;;0.80;99.90;;;;;;4798667;29;20258;-76
2024/01/08 06:08:31;;;;;;;18.75;7.95;;;0.90;99.90;;;;;;4817617;29;20049;-77
2024/01/08 06:11:00;;;;;;;21.15;8.93;;;1.60;99.90;;;;;;4800310;29;20049;-76
2024/01/08 06:13:32;;;;;;;18.23;8.13;;;1.00;99.90;;;;;;4799985;29;20058;-76
2024/01/08 06:16:01;;;;;;;19.17;8.52;;;2.30;99.90;;;;;;4798285;29;20121;-77
2024/01/08 06:18:31;;;;;;;18.70;7.95;;;1.00;99.90;;;;;;4798545;29;20050;-76
2024/01/08 06:21:01;;;;;;;16.70;7.80;;;0.90;99.90;;;;;;4812635;29;22359;-76
2024/01/08 06:23:30;;;;;;;18.00;7.20;;;0.60;99.90;;;;;;4810665;29;20068;-77
2024/01/08 06:26:00;;;;;;;16.90;7.32;;;0.60;99.90;;;;;;4812619;29;20046;-76
2024/01/08 06:28:28;;;;;;;15.85;7.63;;;0.70;99.90;;;;;;4814591;29;20127;-77
2024/01/08 06:30:57;;;;;;;14.50;6.68;;;0.70;99.90;;;;;;4808772;29;20667;-76
2024/01/08 06:33:25;;;;;;;14.38;7.57;;;0.60;99.90;;;;;;4797844;29;20061;-77
2024/01/08 06:35:54;;;;;;;18.33;8.50;;;0.60;99.90;;;;;;4802961;29;20058;-77
2024/01/08 06:38:24;;;;;;;18.40;7.28;;;0.60;99.90;;;;;;4813351;29;20057;-77
2024/01/08 06:40:52;;;;;;;17.67;6.82;;;0.50;99.90;;;;;;4784393;29;20086;-75
2024/01/08 06:43:21;;;;;;;19.70;7.80;;;0.50;99.90;;;;;;4791778;29;20054;-76
2024/01/08 06:45:50;;;;;;;18.23;7.32;;;0.50;99.90;;;;;;4773876;29;20186;-76
2024/01/08 06:48:18;;;;;;;17.38;8.07;;;0.60;99.90;;;;;;4806211;29;20057;-76
2024/01/08 06:50:46;;;;;;;16.50;7.00;;;0.60;99.90;;;;;;4789777;29;20074;-75
2024/01/08 06:53:15;;;;;;;17.25;8.40;;;0.50;99.90;;;;;;4773370;29;20058;-75
2024/01/08 06:55:45;;;;;;;20.95;8.45;;;0.50;99.90;;;;;;4787612;29;20566;-76
2024/01/08 06:58:14;;;;;;;20.13;9.68;;;0.50;99.90;;;;;;4792900;29;20802;-76
2024/01/08 07:00:42;;;;;;;19.40;7.85;;;0.40;99.90;;;;;;4787338;29;20068;-76
2024/01/08 07:03:11;;;;;;;21.17;9.25;;;0.60;99.90;;;;;;4791289;29;20100;-76
2024/01/08 07:05:39;;;;;;;19.02;8.50;;;0.60;99.90;;;;;;4788891;29;20051;-76
2024/01/08 07:08:09;;;;;;;17.83;7.95;;;0.50;99.90;;;;;;4801498;29;20061;-75
2024/01/08 07:10:40;;;;;;;19.00;7.10;;;0.50;99.90;;;;;;4770911;29;20086;-76
2024/01/08 07:13:10;;;;;;;20.00;9.05;;;0.70;99.90;;;;;;4768748;29;21141;-76
2024/01/08 07:15:39;;;;;;;18.38;7.40;;;0.60;99.90;;;;;;4774457;29;22317;-76
2024/01/08 07:18:09;;;;;;;20.20;7.78;;;0.70;99.90;;;;;;4773506;29;21703;-76
2024/01/08 07:20:38;;;;;;;21.00;8.18;;;0.80;99.90;;;;;;4775327;29;20837;-76
2024/01/08 07:23:09;;;;;;;22.30;8.95;;;0.70;99.90;;;;;;4788922;29;20062;-76
2024/01/08 07:25:38;;;;;;;19.38;7.78;;;0.70;99.90;;;;;;4799823;29;20538;-76
2024/01/08 07:28:09;;;;;;;30.27;11.40;;;0.70;99.90;;;;;;4805796;29;20064;-76
2024/01/08 07:30:39;;;;;;;39.22;14.32;;;0.70;99.90;;;;;;4772628;29;20093;-75
2024/01/08 07:33:07;;;;;;;50.50;16.55;;;0.80;99.90;;;;;;4799612;29;20084;-76
2024/01/08 07:35:36;;;;;;;23.98;9.63;;;0.90;99.90;;;;;;4782812;29;20054;-76
2024/01/08 07:38:05;;;;;;;15.98;7.35;;;0.80;99.90;;;;;;4787036;29;20057;-76
2024/01/08 07:40:34;;;;;;;24.33;9.02;;;0.90;99.90;;;;;;4790774;29;20073;-76
2024/01/08 07:43:02;;;;;;;24.50;10.00;;;0.80;99.90;;;;;;4798268;29;20602;-76
2024/01/08 07:45:32;;;;;;;32.35;11.07;;;0.80;99.90;;;;;;4792872;29;20057;-76
2024/01/08 07:48:01;;;;;;;31.05;10.63;;;0.80;99.90;;;;;;4768500;29;20739;-76
2024/01/08 07:50:30;;;;;;;30.13;11.35;;;0.90;99.90;;;;;;4815162;29;20022;-76
2024/01/08 07:52:58;;;;;;;21.80;9.02;;;0.90;99.90;;;;;;4809032;29;20050;-76
2024/01/08 07:55:28;;;;;;;23.15;9.27;;;1.60;99.90;;;;;;4807180;29;20034;-76
2024/01/08 07:57:56;;;;;;;17.40;7.53;;;0.90;99.90;;;;;;4804648;29;20050;-76
2024/01/08 08:00:25;;;;;;;19.25;8.23;;;0.60;99.90;;;;;;4795512;29;20077;-76
2024/01/08 08:02:55;;;;;;;27.08;12.25;;;0.80;99.90;;;;;;4814105;29;20278;-78
2024/01/08 08:05:25;;;;;;;22.88;9.00;;;0.70;99.90;;;;;;4820603;29;20065;-77
2024/01/08 08:07:58;;;;;;;21.48;7.90;;;0.80;99.90;;;;;;4808169;29;20046;-77
2024/01/08 08:10:27;;;;;;;20.15;8.55;;;1.30;99.90;;;;;;4799071;29;20701;-78
2024/01/08 08:12:56;;;;;;;22.92;8.75;;;0.80;99.90;;;;;;4827656;29;20046;-77
2024/01/08 08:15:25;;;;;;;23.48;9.27;;;0.80;99.90;;;;;;4802629;29;20048;-77
2024/01/08 08:17:56;;;;;;;18.80;8.18;;;0.70;99.90;;;;;;4800233;29;20109;-77
2024/01/08 08:20:28;;;;;;;20.80;8.57;;;0.30;99.90;;;;;;4816230;29;20749;-78
2024/01/08 08:22:59;;;;;;;25.85;9.70;;;1.10;99.90;;;;;;4799490;29;20050;-77
2024/01/08 08:25:28;;;;;;;22.80;8.48;;;0.90;99.90;;;;;;4833159;29;20091;-76
2024/01/08 08:27:57;;;;;;;18.20;8.48;;;0.90;99.90;;;;;;4812601;29;20077;-77
2024/01/08 08:30:26;;;;;;;23.50;9.70;;;1.30;99.90;;;;;;4798239;29;20073;-76
2024/01/08 08:32:58;;;;;;;27.50;9.85;;;0.40;99.90;;;;;;4818799;29;20053;-77
2024/01/08 08:35:29;;;;;;;23.20;9.00;;;1.60;99.90;;;;;;4808762;29;20907;-77
2024/01/08 08:37:58;;;;;;;25.42;10.82;;;1.20;99.90;;;;;;4805134;29;22173;-77
2024/01/08 08:40:27;;;;;;;23.25;9.18;;;1.00;99.90;;;;;;4821924;29;20064;-77
2024/01/08 08:42:57;;;;;;;23.98;10.07;;;-0.20;99.90;;;;;;4818002;29;20114;-74
2024/01/08 08:45:28;;;;;;;21.23;8.30;;;1.40;99.90;;;;;;4808565;29;20069;-75
2024/01/08 08:47:58;;;;;;;21.55;7.97;;;1.20;99.90;;;;;;4792626;29;20174;-76
2024/01/08 08:50:27;;;;;;;22.08;9.15;;;1.10;99.90;;;;;;4779963;29;20138;-76
2024/01/08 08:53:02;;;;;;;26.63;10.48;;;1.20;99.90;;;;;;4803875;29;20870;-76
2024/01/08 08:55:30;;;;;;;22.90;9.75;;;1.20;99.90;;;;;;4787548;29;20992;-76
2024/01/08 08:58:02;;;;;;;22.02;9.00;;;1.20;99.90;;;;;;4835963;29;20046;-74
2024/01/08 09:00:32;;;;;;;23.73;9.95;;;1.20;99.90;;;;;;4831245;29;20050;-76
2024/01/08 09:03:05;;;;;;;24.30;9.73;;;1.10;99.90;;;;;;4819602;29;20050;-76
2024/01/08 09:05:34;;;;;;;23.52;10.52;;;1.20;99.90;;;;;;4814032;29;20060;-75
2024/01/08 09:08:13;;;;;;;22.75;8.70;;;1.10;99.90;;;;;;4815906;29;20192;-76
2024/01/08 09:10:44;;;;;;;23.83;8.90;;;1.20;99.90;;;;;;4805482;29;20095;-75
2024/01/08 09:13:14;;;;;;;22.15;10.15;;;1.20;99.90;;;;;;4796841;29;20056;-75
2024/01/08 09:15:44;;;;;;;19.73;9.70;;;1.20;99.90;;;;;;4831009;29;20069;-75
2024/01/08 09:18:18;;;;;;;19.38;8.70;;;1.10;99.90;;;;;;4822092;29;20841;-75
2024/01/08 09:20:49;;;;;;;22.38;8.43;;;1.10;99.90;;;;;;4826853;29;20066;-76
2024/01/08 09:23:18;;;;;;;18.63;7.82;;;1.20;99.90;;;;;;4812737;29;20593;-75
2024/01/08 09:25:46;;;;;;;23.25;9.93;;;1.30;99.90;;;;;;4816758;29;20601;-75
2024/01/08 09:28:15;;;;;;;22.05;9.00;;;1.40;99.90;;;;;;4822377;29;20072;-75
2024/01/08 09:30:47;;;;;;;22.88;8.77;;;1.40;99.90;;;;;;4819543;29;20061;-75
2024/01/08 09:33:19;;;;;;;20.50;8.77;;;1.40;99.90;;;;;;4839091;29;20050;-76
2024/01/08 09:35:49;;;;;;;24.98;8.82;;;1.40;99.90;;;;;;4824502;29;20136;-75
2024/01/08 09:38:17;;;;;;;30.52;11.73;;;1.40;99.90;;;;;;4845083;29;20045;-75
2024/01/08 09:40:47;;;;;;;21.17;8.13;;;1.50;99.90;;;;;;4827022;29;20525;-75
2024/01/08 09:43:16;;;;;;;22.67;9.20;;;1.50;99.90;;;;;;4825085;29;20058;-75
2024/01/08 09:45:56;;;;;;;21.17;7.97;;;1.50;99.90;;;;;;4828582;29;20572;-75
2024/01/08 09:48:27;;;;;;;23.40;9.65;;;1.50;99.90;;;;;;4839948;29;20050;-74
2024/01/08 09:50:56;;;;;;;22.77;9.10;;;1.50;99.90;;;;;;4821178;29;20054;-75
2024/01/08 09:53:24;;;;;;;20.05;8.82;;;1.60;99.90;;;;;;4829395;29;20452;-75
2024/01/08 09:55:53;;;;;;;24.45;9.82;;;1.60;99.90;;;;;;4844915;29;20101;-75
2024/01/08 09:58:22;;;;;;;27.90;9.50;;;1.60;99.90;;;;;;4832340;29;20053;-75
2024/01/08 10:00:53;;;;;;;19.75;8.27;;;1.70;99.90;;;;;;4826817;29;20115;-75
2024/01/08 10:03:22;;;;;;;24.25;9.30;;;1.70;99.90;;;;;;4840765;29;20053;-75
2024/01/08 10:05:52;;;;;;;24.73;8.02;;;1.80;99.90;;;;;;4843386;29;20069;-74
2024/01/08 10:08:21;;;;;;;23.98;9.75;;;1.80;99.90;;;;;;4843307;29;20050;-74
2024/01/08 10:10:49;;;;;;;27.10;8.73;;;1.80;99.90;;;;;;4822138;29;20053;-75
2024/01/08 10:13:18;;;;;;;24.67;9.05;;;1.80;99.90;;;;;;4839618;29;20061;-76
2024/01/08 10:15:48;;;;;;;21.52;8.27;;;1.90;99.90;;;;;;4830381;29;20046;-75
2024/01/08 10:18:18;;;;;;;19.15;7.97;;;1.90;99.90;;;;;;4831607;29;20045;-75
2024/01/08 10:20:48;;;;;;;23.75;8.95;;;1.90;99.90;;;;;;4827921;29;20077;-75
2024/01/08 10:23:25;;;;;;;30.05;10.02;;;1.90;99.90;;;;;;4844707;29;20110;-76
2024/01/08 10:25:54;;;;;;;26.40;9.68;;;2.00;99.90;;;;;;4838040;29;20459;-75
2024/01/08 10:28:23;;;;;;;24.13;9.88;;;2.00;99.90;;;;;;4829679;29;20069;-75
2024/01/08 10:30:52;;;;;;;23.25;8.95;;;2.00;99.90;;;;;;4843748;29;20054;-75
2024/01/08 10:33:20;;;;;;;19.35;8.13;;;1.90;99.90;;;;;;4846242;29;20068;-75
2024/01/08 10:35:50;;;;;;;25.88;9.90;;;2.00;99.90;;;;;;4841613;29;20506;-75
2024/01/08 10:38:22;;;;;;;41.22;14.68;;;2.00;99.90;;;;;;4826260;29;20051;-75
2024/01/08 10:40:51;;;;;;;30.52;10.07;;;2.00;99.90;;;;;;4832758;29;20050;-75
2024/01/08 10:43:19;;;;;;;23.13;8.73;;;2.00;99.90;;;;;;4830324;29;20054;-75
2024/01/08 10:45:49;;;;;;;20.33;8.35;;;2.10;99.90;;;;;;4845949;29;20050;-75
2024/01/08 10:48:22;;;;;;;18.70;7.65;;;2.10;99.90;;;;;;4828850;29;20053;-75
2024/01/08 10:50:54;;;;;;;19.73;7.25;;;2.10;99.90;;;;;;4843314;29;20141;-76
2024/01/08 10:53:34;;;;;;;20.05;8.05;;;2.20;99.90;;;;;;4841231;29;20050;-75
2024/01/08 10:56:07;;;;;;;16.52;8.15;;;2.20;99.90;;;;;;4834346;29;20130;-75
2024/01/08 10:58:37;;;;;;;18.38;8.43;;;2.20;99.90;;;;;;4828378;29;20058;-75
2024/01/08 11:01:07;;;;;;;20.58;7.13;;;2.20;99.90;;;;;;4838518;29;20043;-75
2024/01/08 11:03:36;;;;;;;18.50;6.38;;;2.20;99.90;;;;;;4827112;29;20053;-75
2024/01/08 11:06:07;;;;;;;18.00;7.00;;;2.30;99.90;;;;;;4841436;29;20072;-75
2024/01/08 11:08:37;;;;;;;14.82;5.88;;;2.30;99.90;;;;;;4836043;29;20502;-75
2024/01/08 11:11:09;;;;;;;15.25;6.95;;;2.30;99.90;;;;;;4840902;29;20046;-75
2024/01/08 11:13:40;;;;;;;14.43;5.75;;;2.40;99.90;;;;;;4840186;29;20137;-75
2024/01/08 11:16:09;;;;;;;15.02;6.38;;;2.40;99.90;;;;;;4841192;29;20042;-75
2024/01/08 11:18:38;;;;;;;12.32;5.25;;;2.40;99.90;;;;;;4828854;29;20140;-75
2024/01/08 11:21:07;;;;;;;10.25;4.80;;;2.40;99.90;;;;;;4827993;29;20058;-75
2024/01/08 11:23:41;;;;;;;16.52;6.20;;;2.30;99.90;;;;;;4839258;29;20050;-75
2024/01/08 11:26:15;;;;;;;13.95;5.60;;;2.40;99.90;;;;;;4837626;29;20058;-75
2024/01/08 11:29:00;;;;;;;18.10;6.60;;;2.50;99.90;;;;;;4839925;29;20117;-75
2024/01/08 11:32:09;;;;;;;9.82;4.43;;;2.50;99.90;;;;;;4827005;29;20058;-75
2024/01/08 11:34:57;;;;;;;11.10;5.28;;;2.60;99.90;;;;;;4839706;29;20106;-75
2024/01/08 11:37:37;;;;;;;10.27;3.80;;;2.60;99.90;;;;;;4841227;29;20054;-75
2024/01/08 11:40:16;;;;;;;15.90;4.55;;;2.60;99.90;;;;;;4826056;29;20059;-75
2024/01/08 11:42:45;;;;;;;10.85;4.50;;;2.70;99.90;;;;;;4829058;29;20058;-74
2024/01/08 11:45:14;;;;;;;11.68;4.90;;;2.80;99.90;;;;;;4834141;29;20054;-74
2024/01/08 11:47:44;;;;;;;11.35;4.43;;;2.70;99.90;;;;;;4836133;29;20043;-74
2024/01/08 11:50:14;;;;;;;15.70;6.90;;;2.80;99.90;;;;;;4822422;29;20535;-74
2024/01/08 11:52:43;;;;;;;14.15;5.65;;;2.80;99.90;;;;;;4823964;29;20050;-74
2024/01/08 11:55:13;;;;;;;7.88;2.90;;;2.80;99.90;;;;;;4826531;29;20069;-74
2024/01/08 11:57:42;;;;;;;9.15;2.63;;;2.80;99.90;;;;;;4841829;29;20041;-74
2024/01/08 12:00:18;;;;;;;9.35;2.20;;;2.80;99.90;;;;;;4841025;29;20152;-74
2024/01/08 12:02:50;;;;;;;5.45;2.25;;;2.80;99.90;;;;;;4822848;29;20046;-74
2024/01/08 12:05:19;;;;;;;10.38;3.35;;;2.90;99.90;;;;;;4822730;29;20137;-74
2024/01/08 12:07:52;;;;;;;8.77;2.90;;;2.80;99.90;;;;;;4837711;29;20077;-74
2024/01/08 12:10:30;;;;;;;9.73;3.88;;;2.90;99.90;;;;;;4832424;29;20153;-74
2024/01/08 12:13:00;;;;;;;7.78;3.65;;;2.90;99.90;;;;;;4829306;29;20426;-74
2024/01/08 12:15:31;;;;;;;10.35;4.30;;;2.90;99.90;;;;;;4857278;29;20561;-74
2024/01/08 12:18:00;;;;;;;8.10;3.78;;;2.90;99.90;;;;;;4847679;29;20506;-75
2024/01/08 12:20:29;;;;;;;10.68;4.55;;;2.90;99.90;;;;;;4832780;29;20121;-74
2024/01/08 12:22:58;;;;;;;9.55;4.00;;;2.80;99.90;;;;;;4842338;29;20062;-74
2024/01/08 12:25:28;;;;;;;11.45;3.72;;;2.70;99.90;;;;;;4846716;29;20073;-74
2024/01/08 12:28:00;;;;;;;8.57;4.03;;;2.70;99.90;;;;;;4842169;29;20070;-74
2024/01/08 12:30:31;;;;;;;14.30;5.68;;;2.70;99.90;;;;;;4845477;29;20062;-79
2024/01/08 12:33:06;;;;;;;17.70;5.72;;;2.90;99.90;;;;;;4834486;29;20069;-78
2024/01/08 12:35:39;;;;;;;12.75;3.85;;;2.50;99.90;;;;;;4835364;29;20061;-78
2024/01/08 12:41:17;;;;;;;13.88;5.28;;;3.00;99.90;;;;;;4746982;30;20052;-77
2024/01/08 12:43:47;;;;;;;10.05;4.03;;;2.50;99.90;;;;;;4735191;30;20060;-78
2024/01/08 12:46:16;;;;;;;10.27;4.50;;;2.80;99.90;;;;;;4717151;30;20048;-77
2024/01/08 12:48:46;;;;;;;9.70;4.40;;;2.40;99.90;;;;;;4736418;30;20722;-77
2024/01/08 12:51:15;;;;;;;8.85;4.70;;;2.50;99.90;;;;;;4722848;30;20048;-77
2024/01/08 12:53:44;;;;;;;11.48;4.65;;;2.70;99.90;;;;;;4718544;30;22137;-77
2024/01/08 12:56:13;;;;;;;12.43;4.70;;;2.80;99.90;;;;;;4721459;30;20799;-77
2024/01/08 12:58:43;;;;;;;12.23;4.43;;;2.50;99.90;;;;;;4725299;30;20028;-79
2024/01/08 13:01:12;;;;;;;15.25;5.95;;;2.40;99.90;;;;;;4721933;30;20150;-78
2024/01/08 13:03:41;;;;;;;9.60;3.92;;;2.50;99.90;;;;;;4734526;30;20281;-77
2024/01/08 13:06:10;;;;;;;12.32;5.30;;;1.60;99.90;;;;;;4718685;30;20044;-78
2024/01/08 13:08:39;;;;;;;10.45;4.22;;;2.90;99.90;;;;;;4721030;30;20051;-77
2024/01/08 13:11:08;;;;;;;14.63;4.57;;;2.80;99.90;;;;;;4719350;29;20066;-77
2024/01/08 13:13:39;;;;;;;13.90;5.20;;;2.50;99.90;;;;;;4779482;29;20320;-77
2024/01/08 13:16:10;;;;;;;13.30;5.35;;;2.40;99.90;;;;;;4757654;29;20055;-77
2024/01/08 13:18:38;;;;;;;13.32;5.15;;;2.50;99.90;;;;;;4787821;29;20052;-78
2024/01/08 13:21:08;;;;;;;16.75;5.70;;;2.60;99.90;;;;;;4769128;29;20078;-77
2024/01/08 13:23:39;;;;;;;13.80;5.82;;;2.60;99.90;;;;;;4751940;30;20174;-77
2024/01/08 13:26:10;;;;;;;11.25;5.15;;;3.20;99.90;;;;;;4765813;30;20063;-77
2024/01/08 13:28:41;;;;;;;;;;;2.50;99.90;;;;;;4777380;29;20047;-78